Time;durP1;ratioP1;P1;durP2;ratioP2;P2;SDS_P1;SDS_P2;PMS_P1;PMS_P2;Temp;Humidity;BMP_temperature;BMP_pressure;BME280_temperature;BME280_humidity;BME280_pressure;Samples;Min_cycle;Max_cycle;Signal;HPM_P1;HPM_P2
2021/12/09 00:00:17;;;;;;;18.33;7.38;;;1.40;99.90;;;;;;5061772;28;20085;-85
2021/12/09 00:03:07;;;;;;;21.20;8.07;;;1.90;99.90;;;;;;5063250;28;20079;-85
2021/12/09 00:05:44;;;;;;;16.88;7.18;;;0.80;99.90;;;;;;5077794;28;20083;-84
2021/12/09 00:08:28;;;;;;;15.90;7.72;;;1.70;99.90;;;;;;5062887;28;20062;-84
2021/12/09 00:10:58;;;;;;;18.85;7.85;;;1.80;99.90;;;;;;5058744;28;20044;-84
2021/12/09 00:13:36;;;;;;;15.10;6.85;;;1.70;99.90;;;;;;5078104;28;20504;-84
2021/12/09 00:16:05;;;;;;;20.00;7.30;;;1.60;99.90;;;;;;5069459;28;20048;-83
2021/12/09 00:18:34;;;;;;;19.63;7.97;;;2.40;99.90;;;;;;5078866;28;21394;-83
2021/12/09 00:21:00;;;;;;;19.73;7.70;;;2.80;99.90;;;;;;5063705;28;20058;-84
2021/12/09 00:23:31;;;;;;;14.93;7.45;;;2.50;99.90;;;;;;5060447;28;20044;-84
2021/12/09 00:25:57;;;;;;;19.05;7.80;;;1.00;99.90;;;;;;5058743;28;20585;-84
2021/12/09 00:28:26;;;;;;;16.48;8.35;;;1.60;99.90;;;;;;5062718;28;20054;-84
2021/12/09 00:30:55;;;;;;;17.90;8.25;;;1.60;99.90;;;;;;5079647;28;20040;-85
2021/12/09 00:33:27;;;;;;;18.35;7.63;;;1.10;99.90;;;;;;5062237;28;20041;-84
2021/12/09 00:35:59;;;;;;;22.30;8.52;;;2.30;99.90;;;;;;5061210;28;20043;-85
2021/12/09 00:38:36;;;;;;;;;;;2.60;99.90;;;;;;5060925;28;20584;-85
2021/12/09 00:41:11;;;;;;;22.67;8.30;;;1.60;99.90;;;;;;5062484;28;20014;-84
2021/12/09 00:43:41;;;;;;;24.80;8.82;;;2.40;99.90;;;;;;5078606;28;20680;-84
2021/12/09 00:46:07;;;;;;;19.98;8.77;;;1.60;99.90;;;;;;5081430;28;20158;-85
2021/12/09 00:48:36;;;;;;;21.08;9.05;;;0.90;99.90;;;;;;5058457;28;20579;-84
2021/12/09 00:51:04;;;;;;;16.77;8.52;;;2.40;99.90;;;;;;5063013;28;20070;-84
2021/12/09 00:53:32;;;;;;;21.60;8.77;;;1.70;99.90;;;;;;5077406;28;20404;-84
2021/12/09 00:55:58;;;;;;;20.63;9.13;;;2.00;99.90;;;;;;5061519;28;20288;-85
2021/12/09 00:58:25;;;;;;;14.38;8.20;;;1.80;99.90;;;;;;5063464;28;20443;-86
2021/12/09 01:04:46;;;;;;;22.70;9.38;;;1.70;99.90;;;;;;5084308;28;20086;-85
2021/12/09 01:07:13;;;;;;;21.10;9.48;;;1.20;99.90;;;;;;5083078;28;20512;-84
2021/12/09 01:09:39;;;;;;;20.40;10.38;;;2.50;99.90;;;;;;5062303;28;20036;-84
2021/12/09 01:12:13;;;;;;;20.85;10.60;;;2.30;99.90;;;;;;5081950;28;20125;-84
2021/12/09 01:14:42;;;;;;;21.27;9.77;;;0.60;99.90;;;;;;5070742;28;20040;-85
2021/12/09 01:17:14;;;;;;;19.45;10.80;;;1.50;99.90;;;;;;5074658;28;20189;-85
2021/12/09 01:19:48;;;;;;;21.08;10.52;;;2.90;99.90;;;;;;5083530;28;20028;-85
2021/12/09 01:22:25;;;;;;;17.23;9.93;;;1.50;99.90;;;;;;5069607;28;20134;-86
2021/12/09 01:25:13;;;;;;;20.67;10.50;;;2.80;99.90;;;;;;5093636;28;20037;-84
2021/12/09 01:27:45;;;;;;;21.60;10.37;;;2.00;99.90;;;;;;5068797;28;20087;-86
2021/12/09 01:30:16;;;;;;;22.10;10.63;;;1.30;99.90;;;;;;5070192;28;20126;-84
2021/12/09 01:32:48;;;;;;;19.25;9.95;;;1.00;99.90;;;;;;5069271;28;20115;-84
2021/12/09 01:35:20;;;;;;;25.08;10.27;;;0.60;99.90;;;;;;5069454;28;20036;-85
2021/12/09 01:37:49;;;;;;;20.85;10.40;;;2.10;99.90;;;;;;5087915;28;20048;-84
2021/12/09 01:40:15;;;;;;;20.98;10.52;;;1.50;99.90;;;;;;5067784;28;20087;-85
2021/12/09 01:42:42;;;;;;;27.50;12.52;;;2.80;99.90;;;;;;5085548;28;20032;-84
2021/12/09 01:45:16;;;;;;;23.77;11.98;;;2.40;99.90;;;;;;5070599;28;20051;-85
2021/12/09 01:47:43;;;;;;;26.27;10.75;;;1.60;99.90;;;;;;5085366;28;20152;-85
2021/12/09 01:50:09;;;;;;;23.20;11.82;;;2.60;99.90;;;;;;5087278;28;20087;-84
2021/12/09 01:52:41;;;;;;;20.33;10.65;;;1.50;99.90;;;;;;5068482;28;20086;-85
2021/12/09 01:55:08;;;;;;;21.83;12.00;;;1.50;99.90;;;;;;5069119;28;20048;-85
2021/12/09 01:57:35;;;;;;;23.50;11.07;;;1.40;99.90;;;;;;5088872;28;20105;-84
2021/12/09 02:00:11;;;;;;;21.83;11.32;;;1.40;99.90;;;;;;5080806;28;20063;-84
2021/12/09 02:02:42;;;;;;;24.58;11.60;;;1.00;99.90;;;;;;5075905;28;20062;-84
2021/12/09 02:05:09;;;;;;;29.58;11.50;;;1.40;99.90;;;;;;5094245;28;20095;-84
2021/12/09 02:07:35;;;;;;;25.98;12.20;;;1.40;99.90;;;;;;5079673;28;20042;-84
2021/12/09 02:10:02;;;;;;;20.25;11.68;;;1.30;99.90;;;;;;5096529;28;20043;-84
2021/12/09 02:12:28;;;;;;;21.70;11.82;;;1.30;99.90;;;;;;5095522;28;20071;-84
2021/12/09 02:14:54;;;;;;;23.58;12.88;;;1.30;99.90;;;;;;5082066;28;20070;-84
2021/12/09 02:17:20;;;;;;;21.45;12.10;;;1.30;99.90;;;;;;5080618;28;20031;-84
2021/12/09 02:19:46;;;;;;;25.25;11.68;;;2.20;99.90;;;;;;5083483;28;20132;-84
2021/12/09 02:22:16;;;;;;;24.25;12.35;;;1.30;99.90;;;;;;5087844;28;20463;-84
2021/12/09 02:24:42;;;;;;;24.45;11.95;;;1.30;99.90;;;;;;5076072;28;20043;-84
2021/12/09 02:27:08;;;;;;;25.95;12.35;;;1.30;99.90;;;;;;5076573;28;20055;-84
2021/12/09 02:29:33;;;;;;;21.05;12.50;;;1.20;99.90;;;;;;5097695;28;20028;-84
2021/12/09 02:32:01;;;;;;;29.27;12.30;;;1.20;99.90;;;;;;5076114;28;20057;-85
2021/12/09 02:34:27;;;;;;;26.50;14.32;;;1.20;99.90;;;;;;5095788;28;20521;-83
2021/12/09 02:36:53;;;;;;;24.20;13.60;;;2.40;99.90;;;;;;5094032;28;20701;-84
2021/12/09 02:39:19;;;;;;;28.15;14.65;;;1.30;99.90;;;;;;5079512;28;20087;-84
2021/12/09 02:41:47;;;;;;;25.73;12.30;;;1.20;99.90;;;;;;5078108;28;20031;-84
2021/12/09 02:44:17;;;;;;;26.42;11.85;;;1.10;99.90;;;;;;5097519;28;20071;-85
2021/12/09 02:46:44;;;;;;;21.23;12.37;;;1.10;99.90;;;;;;5073428;28;20027;-84
2021/12/09 02:56:24;;;;;;;30.67;13.27;;;1.70;99.90;;;;;;5106288;28;20084;-85
2021/12/09 02:58:50;;;;;;;30.55;15.20;;;1.00;99.90;;;;;;5099685;28;20032;-84
2021/12/09 03:01:20;;;;;;;30.08;13.15;;;2.40;99.90;;;;;;5080020;28;20039;-85
2021/12/09 03:03:55;;;;;;;24.17;12.95;;;2.10;99.90;;;;;;5095643;28;20040;-84
2021/12/09 03:06:32;;;;;;;31.52;14.10;;;1.60;99.90;;;;;;5067380;28;20127;-84
2021/12/09 03:09:01;;;;;;;28.45;13.15;;;1.80;99.90;;;;;;5069551;28;20051;-84
2021/12/09 03:11:28;;;;;;;34.42;14.00;;;1.60;99.90;;;;;;5076274;28;20087;-84
2021/12/09 03:13:53;;;;;;;25.88;14.52;;;1.10;99.90;;;;;;5075068;28;20055;-86
2021/12/09 03:16:22;;;;;;;28.17;14.73;;;1.80;99.90;;;;;;5087543;28;20400;-85
2021/12/09 03:18:51;;;;;;;31.50;14.73;;;1.00;99.90;;;;;;5075601;28;20039;-84
2021/12/09 03:21:21;;;;;;;32.00;15.32;;;1.10;99.90;;;;;;5093656;28;20459;-84
2021/12/09 03:23:48;;;;;;;32.10;14.05;;;1.00;99.90;;;;;;5087743;28;20623;-86
2021/12/09 03:26:15;;;;;;;25.25;14.90;;;1.00;99.90;;;;;;5079808;28;20529;-85
2021/12/09 03:28:41;;;;;;;27.30;14.20;;;1.00;99.90;;;;;;5075982;28;20040;-85
2021/12/09 03:31:07;;;;;;;29.63;14.65;;;1.00;99.90;;;;;;5080794;28;20051;-85
2021/12/09 03:33:34;;;;;;;27.73;14.52;;;1.00;99.90;;;;;;5078442;28;20062;-84
2021/12/09 03:36:03;;;;;;;25.98;13.48;;;1.90;99.90;;;;;;5077951;28;20043;-85
2021/12/09 03:38:30;;;;;;;34.47;15.50;;;1.00;99.90;;;;;;5078226;28;20051;-85
2021/12/09 03:40:56;;;;;;;32.25;15.02;;;1.10;99.90;;;;;;5076917;28;20040;-85
2021/12/09 03:43:23;;;;;;;26.73;15.35;;;1.00;99.90;;;;;;5092726;28;20046;-86
2021/12/09 03:45:53;;;;;;;32.88;14.80;;;1.00;99.90;;;;;;5094540;28;20054;-85
2021/12/09 03:48:19;;;;;;;30.42;14.95;;;1.80;99.90;;;;;;5079479;28;20556;-84
2021/12/09 03:50:45;;;;;;;36.45;15.82;;;0.90;99.90;;;;;;5076402;28;20084;-84
2021/12/09 03:53:13;;;;;;;34.30;14.73;;;0.90;99.90;;;;;;5079495;28;20043;-84
2021/12/09 03:55:39;;;;;;;29.00;14.00;;;2.00;99.90;;;;;;5075517;28;20484;-85
2021/12/09 03:58:05;;;;;;;33.70;15.52;;;0.90;99.90;;;;;;5077668;28;20059;-85
2021/12/09 04:00:31;;;;;;;25.10;14.10;;;0.90;99.90;;;;;;5089461;28;20141;-85
2021/12/09 04:02:57;;;;;;;26.58;13.13;;;0.90;99.90;;;;;;5093032;28;20114;-85
2021/12/09 04:05:23;;;;;;;32.80;14.40;;;0.90;99.90;;;;;;5094838;28;20126;-87
2021/12/09 04:07:48;;;;;;;34.90;13.82;;;0.90;99.90;;;;;;5077958;28;20031;-87
2021/12/09 04:10:15;;;;;;;30.80;15.60;;;0.90;99.90;;;;;;5080360;28;20460;-87
2021/12/09 04:12:41;;;;;;;26.02;14.50;;;0.90;99.90;;;;;;5093902;28;20036;-85
2021/12/09 04:15:07;;;;;;;30.48;14.30;;;0.90;99.90;;;;;;5091601;28;20047;-85
2021/12/09 04:17:37;;;;;;;30.08;14.63;;;0.90;99.90;;;;;;5081823;28;20142;-85
2021/12/09 04:20:05;;;;;;;29.92;15.00;;;0.90;99.90;;;;;;5096663;28;20043;-85
2021/12/09 04:22:31;;;;;;;30.15;15.23;;;0.90;99.90;;;;;;5075402;28;20039;-84
2021/12/09 04:24:57;;;;;;;33.08;14.55;;;1.40;99.90;;;;;;5080017;28;20443;-86
2021/12/09 04:27:23;;;;;;;25.35;14.55;;;1.50;99.90;;;;;;5091091;28;20051;-85
2021/12/09 04:29:49;;;;;;;31.40;15.88;;;0.90;99.90;;;;;;5073697;28;20046;-85
2021/12/09 04:32:15;;;;;;;25.90;14.48;;;0.90;99.90;;;;;;5096297;28;20085;-85
2021/12/09 04:34:41;;;;;;;30.13;15.05;;;0.90;99.90;;;;;;5080686;28;20047;-85
2021/12/09 04:37:07;;;;;;;35.03;16.08;;;0.90;99.90;;;;;;5083475;28;20163;-86
2021/12/09 04:39:33;;;;;;;28.55;15.13;;;0.90;99.90;;;;;;5076785;28;20047;-85
2021/12/09 04:41:59;;;;;;;30.20;15.10;;;0.90;99.90;;;;;;5083315;28;20047;-86
2021/12/09 04:44:24;;;;;;;27.95;14.75;;;0.90;99.90;;;;;;5094044;28;20817;-85
2021/12/09 04:46:50;;;;;;;36.25;14.68;;;2.00;99.90;;;;;;5083599;28;20047;-85
2021/12/09 04:49:16;;;;;;;26.65;13.48;;;0.90;99.90;;;;;;5079953;28;20039;-85
2021/12/09 04:51:45;;;;;;;29.73;14.85;;;0.90;99.90;;;;;;5082772;28;20054;-85
2021/12/09 04:54:11;;;;;;;31.50;15.05;;;0.90;99.90;;;;;;5092455;28;20044;-85
2021/12/09 04:56:37;;;;;;;29.30;14.35;;;1.50;99.90;;;;;;5085111;28;20100;-83
2021/12/09 04:59:04;;;;;;;31.88;15.50;;;2.00;99.90;;;;;;5086626;28;20535;-84
2021/12/09 05:01:30;;;;;;;32.20;13.32;;;1.40;99.90;;;;;;5082212;28;20349;-84
2021/12/09 05:03:56;;;;;;;28.52;14.25;;;1.90;99.90;;;;;;5076392;28;20035;-84
2021/12/09 05:06:22;;;;;;;32.72;13.45;;;0.50;99.90;;;;;;5084638;28;20043;-84
2021/12/09 05:08:51;;;;;;;26.10;14.20;;;1.80;99.90;;;;;;5080598;28;20144;-85
2021/12/09 05:11:47;;;;;;;29.95;14.25;;;1.40;99.90;;;;;;5084067;28;20048;-84
2021/12/09 05:14:15;;;;;;;30.60;14.05;;;1.90;99.90;;;;;;5075917;28;20039;-85
2021/12/09 05:16:45;;;;;;;30.27;14.02;;;0.80;99.90;;;;;;5078294;28;20092;-85
2021/12/09 05:19:14;;;;;;;29.45;15.05;;;-0.30;99.90;;;;;;5077129;28;20122;-85
2021/12/09 05:21:42;;;;;;;33.05;14.43;;;2.10;99.90;;;;;;5085469;28;20031;-85
2021/12/09 05:24:15;;;;;;;27.88;13.57;;;1.50;99.90;;;;;;5085161;28;20409;-85
2021/12/09 05:26:47;;;;;;;25.45;13.35;;;1.80;99.90;;;;;;5094942;28;20036;-86
2021/12/09 05:29:17;;;;;;;28.90;13.15;;;0.90;99.90;;;;;;5082446;28;20067;-85
2021/12/09 05:34:28;;;;;;;32.42;15.23;;;1.40;99.90;;;;;;5097438;28;20196;-85
2021/12/09 05:36:54;;;;;;;30.70;14.45;;;0.80;99.90;;;;;;5078012;28;20400;-85
2021/12/09 05:39:20;;;;;;;30.95;14.40;;;0.80;99.90;;;;;;5093573;28;20050;-85
2021/12/09 05:41:47;;;;;;;27.55;13.63;;;0.80;99.90;;;;;;5078256;28;20048;-85
2021/12/09 05:44:14;;;;;;;28.58;14.02;;;0.80;99.90;;;;;;5080289;28;20050;-84
2021/12/09 05:46:43;;;;;;;30.27;15.30;;;0.80;99.90;;;;;;5076030;28;20042;-85
2021/12/09 05:49:13;;;;;;;33.53;14.68;;;1.00;99.90;;;;;;5081348;28;20047;-85
2021/12/09 05:51:43;;;;;;;31.13;15.75;;;1.00;99.90;;;;;;5079158;28;20043;-86
2021/12/09 05:54:09;;;;;;;29.67;14.15;;;1.70;99.90;;;;;;5084141;28;20047;-84
2021/12/09 05:56:43;;;;;;;31.83;14.35;;;1.50;99.90;;;;;;5095548;28;20158;-85
2021/12/09 05:59:12;;;;;;;31.77;15.93;;;0.80;99.90;;;;;;5094957;28;20127;-85
2021/12/09 06:01:42;;;;;;;33.47;14.60;;;0.70;99.90;;;;;;5076114;28;20392;-85
2021/12/09 06:04:11;;;;;;;31.38;14.23;;;1.20;99.90;;;;;;5079127;28;20051;-84
2021/12/09 06:06:39;;;;;;;27.55;13.75;;;0.70;99.90;;;;;;5089828;28;20138;-85
2021/12/09 06:09:06;;;;;;;27.95;13.32;;;2.10;99.90;;;;;;5082497;28;20044;-85
2021/12/09 06:11:37;;;;;;;36.55;14.10;;;2.20;99.90;;;;;;5078570;28;20044;-85
2021/12/09 06:14:06;;;;;;;28.98;13.88;;;1.90;99.90;;;;;;5068506;28;20043;-85
2021/12/09 06:16:35;;;;;;;27.50;14.48;;;0.70;99.90;;;;;;5090510;28;20119;-86
2021/12/09 06:19:12;;;;;;;35.53;15.38;;;1.80;99.90;;;;;;5069356;28;20055;-85
2021/12/09 06:21:41;;;;;;;29.48;13.23;;;1.60;99.90;;;;;;5081501;28;20072;-85
2021/12/09 06:24:18;;;;;;;33.75;14.25;;;0.70;99.90;;;;;;5068741;28;20059;-85
2021/12/09 06:26:45;;;;;;;28.77;14.85;;;0.70;99.90;;;;;;5087411;28;20679;-85
2021/12/09 06:29:11;;;;;;;30.23;13.98;;;1.90;99.90;;;;;;5089246;28;20525;-85
2021/12/09 06:31:37;;;;;;;30.52;13.77;;;0.60;99.90;;;;;;5064456;28;20046;-85
2021/12/09 06:34:06;;;;;;;30.00;14.65;;;0.70;99.90;;;;;;5068381;28;20047;-85
2021/12/09 06:36:44;;;;;;;28.15;13.68;;;1.70;99.90;;;;;;5051700;28;20089;-85
2021/12/09 06:39:12;;;;;;;27.00;13.73;;;1.70;99.90;;;;;;5077443;28;20055;-84
2021/12/09 06:41:38;;;;;;;33.42;14.25;;;-0.30;99.90;;;;;;5078143;27;20050;-86
2021/12/09 06:44:08;;;;;;;30.40;13.30;;;0.60;99.90;;;;;;5059084;28;20385;-85
2021/12/09 06:46:39;;;;;;;26.58;12.98;;;0.60;99.90;;;;;;5056789;28;20120;-85
2021/12/09 06:49:06;;;;;;;27.27;14.75;;;1.60;99.90;;;;;;5073824;28;20471;-84
2021/12/09 06:51:31;;;;;;;25.02;15.25;;;1.00;99.90;;;;;;5083697;28;20471;-84
2021/12/09 06:53:58;;;;;;;27.23;14.25;;;1.60;99.90;;;;;;5066795;28;20043;-85
2021/12/09 06:56:35;;;;;;;30.23;14.90;;;0.50;99.90;;;;;;5048505;28;20036;-84
2021/12/09 06:59:01;;;;;;;25.73;14.05;;;1.40;99.90;;;;;;5065828;28;20090;-86
2021/12/09 07:01:45;;;;;;;28.80;14.77;;;0.50;99.90;;;;;;5072252;28;20048;-85
2021/12/09 07:04:17;;;;;;;32.50;15.38;;;0.50;99.90;;;;;;5071672;28;20722;-85
2021/12/09 07:06:43;;;;;;;38.13;15.90;;;0.20;99.90;;;;;;5053493;28;21107;-86
2021/12/09 07:12:37;;;;;;;33.13;14.52;;;1.30;99.90;;;;;;5067683;28;20071;-86
2021/12/09 07:15:07;;;;;;;32.92;14.77;;;2.00;99.90;;;;;;5072628;28;20475;-85
2021/12/09 07:17:36;;;;;;;34.53;17.02;;;-0.30;99.90;;;;;;5073922;28;20054;-85
2021/12/09 07:20:24;;;;;;;31.25;13.88;;;1.40;99.90;;;;;;5078139;28;20105;-86
2021/12/09 07:22:54;;;;;;;34.72;14.65;;;1.40;99.90;;;;;;5080566;28;20100;-86
2021/12/09 07:25:21;;;;;;;24.85;13.38;;;1.80;99.90;;;;;;5074353;28;20074;-85
2021/12/09 07:27:49;;;;;;;31.27;13.57;;;0.60;99.90;;;;;;5071507;28;20086;-85
2021/12/09 07:30:18;;;;;;;29.88;13.77;;;1.40;99.90;;;;;;5077541;28;20226;-85
2021/12/09 07:32:44;;;;;;;27.92;13.40;;;1.40;99.90;;;;;;5078577;28;20033;-85
2021/12/09 07:35:17;;;;;;;34.58;14.48;;;1.60;99.90;;;;;;5062936;28;20048;-85
2021/12/09 07:37:46;;;;;;;31.95;13.63;;;1.70;99.90;;;;;;5076908;28;20040;-86
2021/12/09 07:40:15;;;;;;;35.92;15.02;;;0.40;99.90;;;;;;5065834;28;20054;-86
2021/12/09 07:42:41;;;;;;;32.88;14.45;;;0.10;99.90;;;;;;5081533;28;20047;-86
2021/12/09 07:45:11;;;;;;;39.55;13.90;;;1.30;99.90;;;;;;5061583;28;20612;-85
2021/12/09 07:47:45;;;;;;;27.88;14.23;;;0.40;99.90;;;;;;5056964;28;20226;-85
2021/12/09 07:50:23;;;;;;;34.67;15.93;;;0.10;99.90;;;;;;5057916;28;20362;-85
2021/12/09 07:53:01;;;;;;;35.50;14.63;;;1.00;99.90;;;;;;5054158;28;20408;-85
2021/12/09 07:55:38;;;;;;;28.45;15.05;;;1.40;99.90;;;;;;5061040;28;20040;-85
2021/12/09 07:58:14;;;;;;;33.55;14.88;;;0.40;99.90;;;;;;5060709;28;20063;-86
2021/12/09 08:00:44;;;;;;;35.45;14.70;;;1.30;99.90;;;;;;5055392;28;20055;-85
2021/12/09 08:03:16;;;;;;;26.65;13.05;;;1.30;99.90;;;;;;5060043;28;20518;-86
2021/12/09 08:06:05;;;;;;;30.65;14.48;;;1.40;99.90;;;;;;5081019;28;20067;-85
2021/12/09 08:08:36;;;;;;;33.47;14.20;;;1.80;99.90;;;;;;5066908;28;20489;-86
2021/12/09 08:11:02;;;;;;;27.45;13.52;;;0.40;99.90;;;;;;5067588;28;20081;-85
2021/12/09 08:13:30;;;;;;;35.90;15.30;;;0.50;99.90;;;;;;5065252;28;20059;-86
2021/12/09 08:16:02;;;;;;;30.55;14.55;;;0.00;99.90;;;;;;5101844;28;20040;-85
2021/12/09 08:18:53;;;;;;;26.33;13.40;;;1.10;99.90;;;;;;5064296;28;20040;-85
2021/12/09 08:21:22;;;;;;;38.50;15.15;;;0.40;99.90;;;;;;5075801;28;20496;-86
2021/12/09 08:23:56;;;;;;;37.60;15.90;;;1.10;99.90;;;;;;5066578;28;20040;-85
2021/12/09 08:26:27;;;;;;;33.10;14.63;;;1.00;99.90;;;;;;5062765;28;20079;-86
2021/12/09 08:28:59;;;;;;;36.88;13.98;;;1.70;99.90;;;;;;5067430;28;20075;-86
2021/12/09 08:31:35;;;;;;;32.83;14.40;;;1.40;99.90;;;;;;5081622;28;20185;-85
2021/12/09 08:34:22;;;;;;;32.28;12.90;;;1.70;99.90;;;;;;5094291;28;20048;-86
2021/12/09 08:36:52;;;;;;;33.05;13.48;;;0.00;99.90;;;;;;5084496;28;20036;-85
2021/12/09 08:46:36;;;;;;;31.20;13.15;;;0.00;99.90;;;;;;5081396;28;20027;-86
2021/12/09 08:49:12;;;;;;;29.25;14.18;;;1.50;99.90;;;;;;5063702;28;20408;-85
2021/12/09 08:51:41;;;;;;;28.45;13.55;;;1.90;99.90;;;;;;5063536;28;20047;-86
2021/12/09 08:54:10;;;;;;;28.15;13.20;;;0.70;99.90;;;;;;5066099;28;20412;-85
2021/12/09 08:56:50;;;;;;;29.13;13.85;;;1.60;99.90;;;;;;5063970;28;20122;-86
2021/12/09 08:59:29;;;;;;;31.75;13.10;;;1.90;99.90;;;;;;5070021;28;20048;-86
2021/12/09 09:02:01;;;;;;;28.73;12.50;;;1.00;99.90;;;;;;5086612;28;20096;-86
2021/12/09 09:04:35;;;;;;;27.30;12.55;;;0.90;99.90;;;;;;5080784;28;20159;-85
2021/12/09 09:07:21;;;;;;;26.45;12.85;;;0.90;99.90;;;;;;5085715;28;20044;-86
2021/12/09 09:09:53;;;;;;;40.50;12.73;;;2.40;99.90;;;;;;5065001;28;20619;-86
2021/12/09 09:12:19;;;;;;;30.20;12.70;;;1.00;99.90;;;;;;5079290;28;20039;-85
2021/12/09 09:14:45;;;;;;;32.88;13.10;;;1.20;99.90;;;;;;5086708;28;20046;-85
2021/12/09 09:17:14;;;;;;;27.33;11.65;;;1.40;99.90;;;;;;5085449;28;20122;-84
2021/12/09 09:19:39;;;;;;;27.02;11.60;;;1.30;99.90;;;;;;5068767;28;20096;-86
2021/12/09 09:22:06;;;;;;;22.77;11.85;;;1.30;99.90;;;;;;5068163;28;20047;-85
2021/12/09 09:24:32;;;;;;;28.73;11.07;;;2.30;99.90;;;;;;5074686;28;20198;-85
2021/12/09 09:26:58;;;;;;;25.52;11.13;;;2.10;99.90;;;;;;5065111;28;20077;-86
2021/12/09 09:29:32;;;;;;;25.58;11.55;;;2.20;99.90;;;;;;5083004;28;20051;-85
2021/12/09 09:32:07;;;;;;;31.02;11.23;;;1.50;99.90;;;;;;5066757;28;20043;-85
2021/12/09 09:34:38;;;;;;;25.50;12.20;;;1.50;99.90;;;;;;5070709;28;20177;-86
2021/12/09 09:37:05;;;;;;;31.15;11.48;;;2.00;99.90;;;;;;5069717;28;20036;-85
2021/12/09 09:39:34;;;;;;;21.02;10.70;;;2.70;99.90;;;;;;5091280;28;20044;-86
2021/12/09 09:42:20;;;;;;;30.25;12.13;;;1.00;99.90;;;;;;5066043;28;20046;-84
2021/12/09 09:44:56;;;;;;;24.60;11.02;;;1.70;99.90;;;;;;5077405;28;20043;-85
2021/12/09 09:47:24;;;;;;;24.25;11.02;;;1.50;99.90;;;;;;5087278;28;20040;-84
2021/12/09 09:49:51;;;;;;;22.38;10.45;;;1.70;99.90;;;;;;5084152;28;20400;-84
2021/12/09 09:52:17;;;;;;;20.50;9.23;;;1.80;99.90;;;;;;5084953;28;20059;-84
2021/12/09 09:54:43;;;;;;;20.23;9.18;;;1.90;99.90;;;;;;5086363;28;20074;-84
2021/12/09 09:57:10;;;;;;;26.10;9.73;;;1.90;99.90;;;;;;5074350;28;20076;-84
2021/12/09 09:59:40;;;;;;;21.02;9.32;;;2.00;99.90;;;;;;5080556;28;20048;-85
2021/12/09 10:02:06;;;;;;;23.67;8.80;;;2.00;99.90;;;;;;5085758;28;20047;-85
2021/12/09 10:04:37;;;;;;;22.52;8.88;;;2.10;99.90;;;;;;5067438;28;20051;-85
2021/12/09 10:07:05;;;;;;;23.20;9.13;;;2.20;99.90;;;;;;5084521;28;20071;-84
2021/12/09 10:09:31;;;;;;;21.42;10.02;;;2.20;99.90;;;;;;5082116;28;20123;-84
2021/12/09 10:11:57;;;;;;;28.20;10.18;;;2.20;99.90;;;;;;5066236;28;20044;-84
2021/12/09 10:14:29;;;;;;;22.27;8.75;;;2.30;99.90;;;;;;5067848;28;20040;-84
2021/12/09 10:17:27;;;;;;;18.42;8.40;;;2.30;99.90;;;;;;5063398;28;20043;-84
2021/12/09 10:19:57;;;;;;;20.27;8.95;;;2.30;99.90;;;;;;5011325;28;20653;-84
2021/12/09 10:22:27;;;;;;;22.73;9.85;;;2.30;99.90;;;;;;5066843;28;20050;-85
2021/12/09 10:24:54;;;;;;;27.10;8.98;;;2.40;99.90;;;;;;5066836;28;20040;-83
2021/12/09 10:27:28;;;;;;;21.02;9.60;;;2.30;99.90;;;;;;5082569;28;20516;-84
2021/12/09 10:30:13;;;;;;;19.40;9.23;;;2.70;99.90;;;;;;5066157;28;20032;-83
2021/12/09 10:32:40;;;;;;;25.30;10.77;;;2.40;99.90;;;;;;5063948;28;20051;-83
2021/12/09 10:35:18;;;;;;;23.42;9.82;;;2.40;99.90;;;;;;5064054;28;20040;-84
2021/12/09 10:37:46;;;;;;;19.33;9.00;;;2.40;99.90;;;;;;5065138;28;20468;-85
2021/12/09 10:40:26;;;;;;;20.55;10.95;;;2.40;99.90;;;;;;5082329;28;20048;-82
2021/12/09 10:42:54;;;;;;;25.27;9.85;;;2.50;99.90;;;;;;5065854;28;20552;-84
2021/12/09 10:45:28;;;;;;;18.08;9.73;;;2.50;99.90;;;;;;5080128;28;20094;-85
2021/12/09 10:48:10;;;;;;;25.50;10.38;;;2.60;99.90;;;;;;5064069;28;20079;-84
2021/12/09 10:51:13;;;;;;;25.00;11.10;;;2.50;99.90;;;;;;5112546;27;20412;-85
2021/12/09 10:53:50;;;;;;;25.25;10.77;;;2.60;99.90;;;;;;5063436;28;20047;-85
2021/12/09 10:56:34;;;;;;;26.77;10.85;;;2.60;99.90;;;;;;5079999;28;20389;-85
2021/12/09 10:59:00;;;;;;;23.63;10.20;;;2.60;99.90;;;;;;5064838;28;20518;-86
2021/12/09 11:01:26;;;;;;;25.05;10.30;;;2.60;99.90;;;;;;5084189;28;20044;-84
2021/12/09 11:03:58;;;;;;;26.30;10.90;;;2.60;99.90;;;;;;5078687;28;20450;-84
2021/12/09 11:06:38;;;;;;;21.90;10.73;;;2.60;99.90;;;;;;5064353;28;20047;-85
2021/12/09 11:09:07;;;;;;;20.55;9.60;;;2.70;99.90;;;;;;5080219;28;20043;-84
2021/12/09 11:11:42;;;;;;;25.02;10.98;;;2.70;99.90;;;;;;5077187;28;20040;-84
2021/12/09 11:14:14;;;;;;;29.85;11.27;;;2.70;99.90;;;;;;5081680;28;20028;-85
2021/12/09 11:16:45;;;;;;;30.65;11.02;;;1.90;99.90;;;;;;5065875;28;20078;-84
2021/12/09 11:19:13;;;;;;;26.77;11.07;;;2.70;99.90;;;;;;5063459;28;20042;-85
2021/12/09 11:21:46;;;;;;;25.58;11.52;;;2.70;99.90;;;;;;5064523;28;20044;-84
2021/12/09 11:24:18;;;;;;;28.05;11.60;;;2.70;99.90;;;;;;5065421;28;20265;-84
2021/12/09 11:29:34;;;;;;;34.67;14.02;;;2.70;99.90;;;;;;5078607;28;20040;-84
2021/12/09 11:32:17;;;;;;;30.02;12.82;;;2.70;99.90;;;;;;5080605;28;20048;-84
2021/12/09 11:35:02;;;;;;;31.30;12.57;;;2.70;99.90;;;;;;5062778;28;20048;-84
2021/12/09 11:40:00;;;;;;;32.75;11.95;;;2.70;99.90;;;;;;5078541;28;20047;-84
2021/12/09 11:42:33;;;;;;;31.73;12.60;;;2.70;99.90;;;;;;5080754;28;20105;-86
2021/12/09 11:44:59;;;;;;;34.08;14.60;;;2.70;99.90;;;;;;5065577;28;20552;-85
2021/12/09 11:47:25;;;;;;;25.63;11.93;;;2.70;99.90;;;;;;5066796;28;20119;-84
2021/12/09 11:49:51;;;;;;;31.95;13.20;;;3.50;99.90;;;;;;5076249;28;20401;-84
2021/12/09 11:52:20;;;;;;;34.72;12.90;;;2.70;99.90;;;;;;5074631;28;20049;-84
2021/12/09 11:55:06;;;;;;;32.78;13.93;;;2.70;99.90;;;;;;5077784;28;20512;-86
2021/12/09 11:57:39;;;;;;;32.83;12.95;;;2.70;99.90;;;;;;5058133;28;20040;-83
2021/12/09 12:15:27;;;;;;;24.92;12.55;;;2.80;99.90;;;;;;5064799;28;20052;-85
2021/12/09 12:24:33;;;;;;;27.85;13.82;;;2.80;99.90;;;;;;5047632;28;20063;-84
2021/12/09 12:27:11;;;;;;;28.55;12.80;;;2.80;99.90;;;;;;5043017;28;20465;-84
2021/12/09 12:41:11;;;;;;;34.35;14.95;;;2.90;99.90;;;;;;5043523;28;20448;-87
2021/12/09 12:43:52;;;;;;;28.10;13.40;;;2.90;99.90;;;;;;5041210;28;20050;-86
2021/12/09 12:49:27;;;;;;;35.53;14.30;;;2.90;99.90;;;;;;5058049;28;20071;-86
2021/12/09 12:51:55;;;;;;;40.67;15.80;;;2.90;99.90;;;;;;5041657;28;20051;-87
2021/12/09 12:57:35;;;;;;;38.22;14.60;;;2.90;99.90;;;;;;5046059;28;20052;-86
2021/12/09 13:00:10;;;;;;;42.20;15.88;;;2.90;99.90;;;;;;5046546;28;20102;-86
2021/12/09 13:03:23;;;;;;;37.00;15.52;;;3.00;99.90;;;;;;5046535;28;20045;-85
2021/12/09 13:08:50;;;;;;;36.55;14.93;;;3.00;99.90;;;;;;5063233;28;20131;-86
2021/12/09 13:11:23;;;;;;;34.38;15.43;;;3.10;99.90;;;;;;5046690;28;20043;-86
2021/12/09 13:19:19;;;;;;;39.67;17.70;;;3.10;99.90;;;;;;5062982;28;20048;-87
2021/12/09 13:21:58;;;;;;;41.90;16.50;;;3.10;99.90;;;;;;5045309;28;20044;-86
2021/12/09 13:25:34;;;;;;;41.42;17.60;;;3.10;99.90;;;;;;5048176;28;20052;-86
2021/12/09 13:28:03;;;;;;;33.75;16.70;;;3.10;99.90;;;;;;4949389;28;20403;-86
2021/12/09 13:55:13;;;;;;;36.28;16.33;;;3.10;99.90;;;;;;5063423;28;20048;-85
2021/12/09 13:57:47;;;;;;;40.63;16.88;;;3.10;99.90;;;;;;5048384;28;20051;-86
2021/12/09 14:00:25;;;;;;;33.58;15.68;;;3.20;99.90;;;;;;5047191;28;20085;-85
2021/12/09 14:02:53;;;;;;;36.72;16.58;;;3.20;99.90;;;;;;5065697;28;20090;-87
2021/12/09 14:05:19;;;;;;;38.13;16.42;;;3.20;99.90;;;;;;5061240;28;20139;-85
2021/12/09 14:07:59;;;;;;;41.60;16.65;;;3.40;99.90;;;;;;5037490;28;20036;-85
2021/12/09 14:10:29;;;;;;;37.22;15.95;;;3.20;99.90;;;;;;5033301;28;20143;-86
2021/12/09 14:13:03;;;;;;;38.33;17.52;;;3.20;99.90;;;;;;5042114;28;20435;-86
2021/12/09 14:15:37;;;;;;;38.13;16.25;;;4.10;99.90;;;;;;5043542;28;20079;-85
2021/12/09 14:18:11;;;;;;;35.38;15.43;;;3.20;99.90;;;;;;5054390;28;20041;-85
2021/12/09 14:20:37;;;;;;;31.65;15.02;;;3.20;99.90;;;;;;5030591;28;20720;-85
2021/12/09 14:23:07;;;;;;;41.75;16.13;;;3.20;99.90;;;;;;5051743;28;20044;-85
2021/12/09 14:25:40;;;;;;;36.78;16.38;;;3.20;99.90;;;;;;5063328;28;20412;-86
2021/12/09 14:28:18;;;;;;;44.67;16.95;;;4.20;99.90;;;;;;5046616;28;20063;-86
2021/12/09 14:31:05;;;;;;;36.38;15.73;;;3.70;99.90;;;;;;5066728;28;20072;-86
2021/12/09 14:33:52;;;;;;;31.80;16.60;;;3.50;99.90;;;;;;5045429;28;20052;-86
2021/12/09 14:36:46;;;;;;;32.65;15.02;;;4.10;99.90;;;;;;5064270;28;20404;-86
2021/12/09 14:53:22;;;;;;;34.47;15.70;;;3.30;99.90;;;;;;5052497;28;20398;-86